Crotto, Argentina
Current Conditions -  °F | °C
As of 7:00 PM on Sunday 21 Dec 2014 (Local Time) from SAEZ Reporting Station
Clear Clear  
Wind Chill: 70°   Ceiling: Unl
Heat Index: 70°   Visibility: 6mi
Dew Point: 46°   Wind: 3mph
Humidity: 43%   Direction: 170°S
Pressure: 29.77"   Gusts: NA
Location:  36.58°S, 60.18°W
Report Text: SAEZ 212200Z 17003KT 140V220 CAVOK 21/08 Q1008
Loading
Personal Weather Stations






























Interactive Weather Map New forecast layout! Learn more

10-Day Weather Forecast

Advertisements
Track Severe Weather on mobile